createdAt,value
2023-01-15T00:00:25.614Z,11.15
2023-01-15T00:03:28.840Z,11.23
2023-01-15T00:06:32.692Z,11.15
2023-01-15T00:09:35.620Z,11.17
2023-01-15T00:12:39.681Z,11.16
2023-01-15T00:15:44.403Z,11.23
2023-01-15T00:18:51.616Z,11.11
2023-01-15T00:21:55.005Z,11.19
2023-01-15T00:28:33.145Z,11.15
2023-01-15T00:31:36.691Z,11.14
2023-01-15T00:34:39.538Z,11.20
2023-01-15T00:37:42.429Z,11.19
2023-01-15T00:40:45.736Z,11.16
2023-01-15T00:43:50.179Z,11.23
2023-01-15T00:46:54.261Z,11.28
2023-01-15T00:49:57.051Z,11.28
2023-01-15T00:52:59.754Z,11.29
2023-01-15T00:56:02.488Z,11.36
2023-01-15T00:59:07.067Z,11.37
2023-01-15T01:02:09.972Z,11.42
2023-01-15T01:05:12.827Z,11.42
2023-01-15T01:08:15.886Z,11.40
2023-01-15T01:11:20.155Z,11.45
2023-01-15T01:14:24.387Z,11.44
2023-01-15T01:17:27.358Z,11.52
2023-01-15T01:20:30.292Z,11.52
2023-01-15T01:23:33.033Z,11.60
2023-01-15T01:26:36.410Z,11.67
2023-01-15T01:29:40.559Z,11.68
2023-01-15T01:32:45.923Z,11.80
2023-01-15T01:35:49.780Z,11.78
2023-01-15T01:38:52.700Z,11.84
2023-01-15T01:41:55.508Z,11.83
2023-01-15T01:45:18.175Z,11.85
2023-01-15T01:48:26.520Z,11.87
2023-01-15T01:51:37.263Z,11.85
2023-01-15T01:54:40.694Z,11.90
2023-01-15T01:57:44.534Z,11.92
2023-01-15T02:00:51.319Z,11.91
2023-01-15T02:03:55.376Z,12.02
2023-01-15T02:07:00.066Z,12.01
2023-01-15T02:10:03.094Z,12.13
2023-01-15T02:13:11.967Z,12.10
2023-01-15T02:16:22.771Z,12.15
2023-01-15T02:19:41.332Z,12.13
2023-01-15T02:22:54.581Z,12.11
2023-01-15T02:26:23.247Z,12.09
2023-01-15T02:29:35.110Z,12.10
2023-01-15T02:32:43.206Z,12.20
2023-01-15T02:35:49.469Z,12.21
2023-01-15T02:38:56.924Z,12.24
2023-01-15T02:42:03.994Z,12.15
2023-01-15T02:45:10.633Z,12.20
2023-01-15T02:48:15.668Z,12.23
2023-01-15T02:51:24.780Z,12.25
2023-01-15T02:54:30.688Z,12.31
2023-01-15T02:57:35.900Z,12.27
2023-01-15T03:00:43.791Z,12.22
2023-01-15T03:03:53.551Z,12.31
2023-01-15T03:07:01.674Z,12.26
2023-01-15T03:10:05.972Z,12.30
2023-01-15T03:13:12.880Z,12.31
2023-01-15T03:16:37.905Z,12.32
2023-01-15T03:19:47.113Z,12.26
2023-01-15T03:22:55.182Z,12.20
2023-01-15T03:25:58.440Z,12.21
2023-01-15T03:29:03.639Z,12.28
2023-01-15T03:32:08.191Z,12.24
2023-01-15T03:35:46.062Z,12.28
2023-01-15T03:38:50.834Z,12.30
2023-01-15T03:42:06.155Z,12.32
2023-01-15T03:45:16.503Z,12.36
2023-01-15T03:48:28.512Z,12.30
2023-01-15T03:51:39.789Z,12.41
2023-01-15T03:54:49.893Z,12.39
2023-01-15T03:57:58.572Z,12.49
2023-01-15T04:01:04.697Z,12.47
2023-01-15T04:04:09.200Z,12.54
2023-01-15T04:07:12.568Z,12.49
2023-01-15T04:10:15.387Z,12.55
2023-01-15T04:13:18.095Z,12.53
2023-01-15T04:16:26.236Z,12.48
2023-01-15T04:19:30.420Z,12.44
2023-01-15T04:22:33.265Z,12.45
2023-01-15T04:25:36.058Z,12.49
2023-01-15T04:28:38.810Z,12.46
2023-01-15T04:31:41.569Z,12.45
2023-01-15T04:34:45.732Z,12.50
2023-01-15T04:37:48.542Z,12.49
2023-01-15T04:41:08.771Z,12.49
2023-01-15T04:44:11.562Z,12.57
2023-01-15T04:47:14.396Z,12.47
2023-01-15T04:50:18.818Z,12.44
2023-01-15T04:53:21.602Z,12.48
2023-01-15T04:56:24.671Z,12.45
2023-01-15T04:59:29.097Z,12.46
2023-01-15T05:02:33.636Z,12.48
2023-01-15T05:05:37.810Z,12.48
2023-01-15T05:08:40.609Z,12.46
2023-01-15T05:11:43.402Z,12.52
2023-01-15T05:14:46.110Z,12.40
2023-01-15T05:17:48.964Z,11.75
2023-01-15T05:20:53.796Z,11.19
2023-01-15T05:23:57.973Z,10.79
2023-01-15T05:27:00.934Z,10.51
2023-01-15T05:30:04.035Z,10.26
2023-01-15T05:33:09.880Z,10.12
2023-01-15T05:36:16.122Z,9.94
2023-01-15T05:39:18.953Z,9.83
2023-01-15T05:42:21.675Z,9.75
2023-01-15T05:45:24.432Z,9.66
2023-01-15T05:48:29.045Z,9.66
2023-01-15T05:51:33.175Z,9.61
2023-01-15T05:54:37.434Z,9.58
2023-01-15T05:57:40.153Z,9.53
2023-01-15T06:00:42.995Z,9.39
2023-01-15T06:03:47.170Z,9.41
2023-01-15T06:06:52.635Z,9.31
2023-01-15T06:09:55.436Z,9.24
2023-01-15T06:12:58.217Z,9.23
2023-01-15T06:16:01.103Z,9.19
2023-01-15T06:19:05.972Z,9.19
2023-01-15T06:22:12.406Z,9.12
2023-01-15T06:25:15.475Z,9.09
2023-01-15T06:28:18.204Z,9.04
2023-01-15T06:31:22.960Z,8.98
2023-01-15T06:34:25.703Z,8.88
2023-01-15T06:37:29.817Z,8.79
2023-01-15T06:40:32.552Z,8.80
2023-01-15T06:44:04.387Z,8.63
2023-01-15T06:47:24.636Z,8.50
2023-01-15T06:50:27.653Z,8.37
2023-01-15T06:53:31.739Z,8.28
2023-01-15T06:56:34.497Z,8.17
2023-01-15T06:59:37.371Z,8.07
2023-01-15T07:02:41.249Z,8.01
2023-01-15T07:05:44.096Z,7.95
2023-01-15T07:08:48.798Z,7.86
2023-01-15T07:11:51.575Z,7.82
2023-01-15T07:14:54.627Z,7.78
2023-01-15T07:17:57.542Z,7.73
2023-01-15T07:21:00.817Z,7.64
2023-01-15T07:24:05.594Z,7.56
2023-01-15T07:27:09.722Z,7.61
2023-01-15T07:30:16.587Z,7.53
2023-01-15T07:33:19.445Z,7.54
2023-01-15T07:36:22.102Z,7.51
2023-01-15T07:39:26.425Z,7.44
2023-01-15T07:42:46.571Z,7.48
2023-01-15T07:46:07.198Z,7.40
2023-01-15T07:49:28.912Z,7.39
2023-01-15T07:52:31.685Z,7.32
2023-01-15T07:55:36.556Z,7.39
2023-01-15T07:58:39.320Z,7.40
2023-01-15T08:01:42.294Z,7.36
2023-01-15T08:04:45.410Z,7.34
2023-01-15T08:07:49.092Z,7.36
2023-01-15T08:11:25.059Z,7.38
2023-01-15T08:14:45.178Z,7.39
2023-01-15T08:17:49.511Z,7.32
2023-01-15T08:20:52.316Z,7.28
2023-01-15T08:23:55.323Z,7.39
2023-01-15T08:26:59.516Z,7.26
2023-01-15T08:30:02.331Z,7.27
2023-01-15T08:33:05.704Z,7.17
2023-01-15T08:36:08.976Z,7.13
2023-01-15T08:39:12.404Z,7.12
2023-01-15T08:42:16.553Z,7.13
2023-01-15T08:45:19.301Z,7.12
2023-01-15T08:48:22.014Z,7.13
2023-01-15T08:51:25.140Z,6.99
2023-01-15T08:54:28.138Z,6.96
2023-01-15T08:57:32.365Z,6.93
2023-01-15T09:00:35.223Z,6.92
2023-01-15T09:03:38.461Z,6.86
2023-01-15T09:06:42.215Z,6.89
2023-01-15T09:09:45.020Z,6.90
2023-01-15T09:12:52.559Z,6.86
2023-01-15T09:15:55.862Z,6.89
2023-01-15T09:18:58.716Z,6.98
2023-01-15T09:22:01.485Z,7.04
2023-01-15T09:25:04.475Z,7.15
2023-01-15T09:28:08.777Z,7.13
2023-01-15T09:31:12.027Z,7.14
2023-01-15T09:34:14.934Z,6.99
2023-01-15T09:37:17.779Z,7.00
2023-01-15T09:40:37.784Z,7.07
2023-01-15T09:43:51.094Z,7.18
2023-01-15T09:47:05.175Z,7.22
2023-01-15T09:50:25.835Z,7.20
2023-01-15T09:53:50.976Z,7.14
2023-01-15T09:56:55.945Z,7.20
2023-01-15T10:00:03.354Z,7.11
2023-01-15T10:03:13.709Z,7.09
2023-01-15T10:06:21.108Z,7.12
2023-01-15T10:09:31.461Z,7.22
2023-01-15T10:12:38.260Z,7.20
2023-01-15T10:15:45.705Z,7.06
2023-01-15T10:18:48.592Z,7.06
2023-01-15T10:21:58.672Z,7.00
2023-01-15T10:25:05.595Z,6.85
2023-01-15T10:28:23.813Z,6.89
2023-01-15T10:31:46.543Z,6.85
2023-01-15T10:35:18.095Z,6.72
2023-01-15T10:38:28.990Z,6.58
2023-01-15T10:41:46.174Z,6.53
2023-01-15T10:45:00.692Z,6.54
2023-01-15T10:48:15.102Z,6.38
2023-01-15T10:51:21.071Z,6.23
2023-01-15T10:54:28.479Z,6.13
2023-01-15T10:57:43.261Z,5.91
2023-01-15T11:00:51.697Z,5.87
2023-01-15T11:03:55.832Z,5.82
2023-01-15T11:07:00.571Z,5.85
2023-01-15T11:10:08.926Z,5.89
2023-01-15T11:13:39.948Z,5.77
2023-01-15T11:17:02.033Z,5.63
2023-01-15T11:20:17.007Z,5.50
2023-01-15T11:23:23.297Z,5.49
2023-01-15T11:26:28.169Z,5.52
2023-01-15T11:29:37.001Z,5.53
2023-01-15T11:32:39.937Z,5.47
2023-01-15T11:35:51.587Z,5.47
2023-01-15T11:38:54.557Z,5.53
2023-01-15T11:42:18.172Z,5.55
2023-01-15T11:45:39.819Z,5.40
2023-01-15T11:49:04.967Z,5.43
2023-01-15T11:52:12.532Z,5.46
2023-01-15T11:55:19.588Z,5.40
2023-01-15T11:58:24.897Z,5.31
2023-01-15T12:01:30.504Z,5.37
2023-01-15T12:04:37.814Z,5.46
2023-01-15T12:07:41.848Z,5.63
2023-01-15T12:11:25.250Z,5.63
2023-01-15T12:14:55.145Z,5.77
2023-01-15T12:18:19.211Z,5.80
2023-01-15T12:21:49.366Z,5.77
2023-01-15T12:25:12.630Z,5.74
2023-01-15T12:28:20.661Z,5.83
2023-01-15T12:31:30.448Z,5.89
2023-01-15T12:34:42.101Z,5.93
2023-01-15T12:37:48.770Z,6.07
2023-01-15T12:40:57.422Z,6.05
2023-01-15T12:44:18.161Z,6.08
2023-01-15T12:47:25.545Z,6.07
2023-01-15T12:50:41.825Z,6.01
2023-01-15T12:53:50.327Z,6.01
2023-01-15T12:57:00.549Z,6.07
2023-01-15T13:00:13.516Z,6.06
2023-01-15T13:03:23.850Z,6.11
2023-01-15T13:06:28.612Z,6.14
2023-01-15T13:09:39.435Z,6.19
2023-01-15T13:12:44.618Z,6.27
2023-01-15T13:15:58.768Z,6.38
2023-01-15T13:19:20.181Z,6.38
2023-01-15T13:22:28.629Z,6.43
2023-01-15T13:25:44.873Z,6.50
2023-01-15T13:29:06.684Z,6.55
2023-01-15T13:32:15.669Z,6.67
2023-01-15T13:35:28.627Z,6.63
2023-01-15T13:38:34.974Z,7.38
2023-01-15T13:41:55.403Z,9.31
2023-01-15T13:45:02.985Z,12.55
2023-01-15T13:48:09.742Z,14.94
2023-01-15T13:51:26.940Z,15.73
2023-01-15T13:54:31.065Z,15.84
2023-01-15T13:57:36.246Z,15.59
2023-01-15T14:00:40.744Z,16.18
2023-01-15T14:03:56.642Z,16.84
2023-01-15T14:06:59.259Z,16.13
2023-01-15T14:10:26.096Z,15.08
2023-01-15T14:13:46.874Z,13.35
2023-01-15T14:17:03.422Z,11.73
2023-01-15T14:20:34.336Z,10.68
2023-01-15T14:24:27.957Z,10.36
2023-01-15T14:27:49.439Z,11.34
2023-01-15T14:31:13.454Z,12.32
2023-01-15T14:34:20.729Z,11.57
2023-01-15T14:37:29.600Z,10.70
2023-01-15T14:40:35.140Z,9.98
2023-01-15T14:43:41.563Z,9.50
2023-01-15T14:46:44.554Z,9.04
2023-01-15T14:49:50.451Z,8.63
2023-01-15T14:52:55.037Z,8.49
2023-01-15T14:56:03.118Z,8.28
2023-01-15T14:59:13.945Z,8.15
2023-01-15T15:02:22.434Z,7.98
2023-01-15T15:05:27.071Z,7.84
2023-01-15T15:08:33.074Z,7.77
2023-01-15T15:12:01.131Z,7.72
2023-01-15T15:15:09.896Z,7.60
2023-01-15T15:18:23.461Z,7.47
2023-01-15T15:21:30.595Z,7.41
2023-01-15T15:24:36.639Z,7.27
2023-01-15T15:27:39.310Z,7.26
2023-01-15T15:30:45.803Z,7.24
2023-01-15T15:33:48.511Z,7.15
2023-01-15T15:36:52.831Z,7.00
2023-01-15T15:40:01.039Z,7.00
2023-01-15T15:43:30.291Z,6.94
2023-01-15T15:46:52.459Z,6.88
2023-01-15T15:49:56.077Z,6.77
2023-01-15T15:53:04.515Z,6.73
2023-01-15T15:56:07.720Z,6.72
2023-01-15T15:59:19.915Z,6.63
2023-01-15T16:02:25.604Z,6.57
2023-01-15T16:05:31.636Z,6.60
2023-01-15T16:08:36.748Z,6.58
2023-01-15T16:11:40.619Z,6.49
2023-01-15T16:14:43.383Z,6.45
2023-01-15T16:17:46.753Z,6.51
2023-01-15T16:20:49.515Z,6.47
2023-01-15T16:24:02.458Z,6.39
2023-01-15T16:27:07.841Z,6.49
2023-01-15T16:30:17.156Z,6.48
2023-01-15T16:33:19.946Z,6.46
2023-01-15T16:36:23.143Z,6.42
2023-01-15T16:39:29.327Z,6.40
2023-01-15T16:42:36.312Z,6.29
2023-01-15T16:45:55.211Z,6.35
2023-01-15T16:49:20.116Z,6.22
2023-01-15T16:52:51.114Z,6.16
2023-01-15T16:55:57.066Z,6.14
2023-01-15T16:58:59.709Z,6.14
2023-01-15T17:02:06.039Z,6.11
2023-01-15T17:05:25.741Z,6.09
2023-01-15T17:08:35.003Z,5.95
2023-01-15T17:11:39.040Z,6.02
2023-01-15T17:14:41.880Z,5.94
2023-01-15T17:17:46.500Z,5.98
2023-01-15T17:20:49.331Z,6.01
2023-01-15T17:23:52.110Z,5.95
2023-01-15T17:26:56.113Z,5.98
2023-01-15T17:29:58.733Z,6.00
2023-01-15T17:33:02.674Z,5.94
2023-01-15T17:36:05.879Z,5.95
2023-01-15T17:39:12.920Z,5.96
2023-01-15T17:42:19.693Z,5.91
2023-01-15T17:45:24.572Z,5.93
2023-01-15T17:48:27.334Z,5.92
2023-01-15T17:51:30.573Z,5.87
2023-01-15T17:54:50.791Z,5.98
2023-01-15T17:58:12.641Z,5.87
2023-01-15T18:01:37.509Z,5.85
2023-01-15T18:05:01.699Z,5.83
2023-01-15T18:08:08.627Z,5.82
2023-01-15T18:11:11.706Z,5.74
2023-01-15T18:14:15.754Z,5.82
2023-01-15T18:17:18.439Z,5.75
2023-01-15T18:20:21.317Z,5.81
2023-01-15T18:23:25.936Z,5.75
2023-01-15T18:26:28.611Z,5.73
2023-01-15T18:29:33.022Z,5.82
2023-01-15T18:32:35.774Z,5.79
2023-01-15T18:35:38.438Z,5.78
2023-01-15T18:38:43.883Z,5.80
2023-01-15T18:42:04.250Z,5.68
2023-01-15T18:45:27.373Z,5.73
2023-01-15T18:48:30.288Z,5.77
2023-01-15T18:51:33.352Z,5.71
2023-01-15T18:54:36.099Z,5.70
2023-01-15T18:57:38.792Z,5.78
2023-01-15T19:00:42.868Z,5.73
2023-01-15T19:03:45.586Z,5.73
2023-01-15T19:06:48.536Z,5.62
2023-01-15T19:09:51.202Z,5.63
2023-01-15T19:12:53.876Z,5.73
2023-01-15T19:16:15.517Z,5.75
2023-01-15T19:19:18.466Z,5.72
2023-01-15T19:22:38.829Z,5.73
2023-01-15T19:25:43.841Z,5.74
2023-01-15T19:28:46.485Z,5.74
2023-01-15T19:31:50.618Z,5.68
2023-01-15T19:34:53.740Z,5.69
2023-01-15T19:37:57.370Z,5.86
2023-01-15T19:41:20.052Z,5.81
2023-01-15T19:44:40.186Z,5.78
2023-01-15T19:48:02.638Z,5.77
2023-01-15T19:51:05.897Z,5.72
2023-01-15T19:54:08.574Z,5.73
2023-01-15T19:57:28.766Z,5.72
2023-01-15T20:00:34.354Z,5.74
2023-01-15T20:03:40.061Z,5.72
2023-01-15T20:06:42.757Z,5.80
2023-01-15T20:09:45.872Z,5.76
2023-01-15T20:13:06.113Z,5.66
2023-01-15T20:16:11.068Z,5.61
2023-01-15T20:19:15.205Z,5.65
2023-01-15T20:22:17.933Z,5.70
2023-01-15T20:25:20.660Z,5.67
2023-01-15T20:28:23.314Z,5.70
2023-01-15T20:31:26.102Z,5.73
2023-01-15T20:34:31.451Z,5.68
2023-01-15T20:37:34.364Z,5.63
2023-01-15T20:40:37.065Z,5.65
2023-01-15T20:43:57.352Z,5.52
2023-01-15T20:47:00.056Z,5.56
2023-01-15T20:50:03.378Z,5.55
2023-01-15T20:53:08.764Z,5.53
2023-01-15T20:56:15.881Z,5.53
2023-01-15T20:59:18.674Z,5.49
2023-01-15T21:02:21.355Z,5.55
2023-01-15T21:05:26.256Z,5.46
2023-01-15T21:08:29.445Z,5.50
2023-01-15T21:11:32.353Z,5.46
2023-01-15T21:14:34.996Z,5.42
2023-01-15T21:17:38.893Z,5.36
2023-01-15T21:20:42.889Z,5.37
2023-01-15T21:23:46.196Z,5.37
2023-01-15T21:26:48.958Z,5.37
2023-01-15T21:29:52.235Z,5.34
2023-01-15T21:32:57.178Z,5.27
2023-01-15T21:36:06.464Z,5.24
2023-01-15T21:39:11.690Z,5.22
2023-01-15T21:42:34.681Z,5.12
2023-01-15T21:45:37.408Z,5.04
2023-01-15T21:48:40.096Z,5.01
2023-01-15T21:51:44.771Z,4.93
2023-01-15T21:54:48.039Z,4.83
2023-01-15T21:57:51.425Z,4.71
2023-01-15T22:00:54.248Z,4.67
2023-01-15T22:03:57.284Z,4.67
2023-01-15T22:07:01.401Z,4.49
2023-01-15T22:10:04.624Z,4.34
2023-01-15T22:13:07.830Z,4.33
2023-01-15T22:16:10.509Z,4.32
2023-01-15T22:19:19.446Z,4.23
2023-01-15T22:22:26.176Z,4.04
2023-01-15T22:25:28.819Z,3.91
2023-01-15T22:28:31.483Z,3.85
2023-01-15T22:31:34.171Z,3.87
2023-01-15T22:34:37.036Z,3.93
2023-01-15T22:37:41.045Z,3.94
2023-01-15T22:40:43.925Z,4.04
2023-01-15T22:43:46.632Z,4.06
2023-01-15T22:46:50.383Z,4.14
2023-01-15T22:49:53.219Z,4.16
2023-01-15T22:52:59.141Z,4.12
2023-01-15T22:56:01.888Z,4.19
2023-01-15T22:59:04.892Z,4.20
2023-01-15T23:02:07.738Z,4.17
2023-01-15T23:05:11.286Z,4.22
2023-01-15T23:08:15.352Z,4.33
2023-01-15T23:11:17.997Z,4.38
2023-01-15T23:14:22.111Z,4.31
2023-01-15T23:17:27.382Z,4.36
2023-01-15T23:20:31.847Z,4.31
2023-01-15T23:23:38.705Z,4.25
2023-01-15T23:26:43.754Z,4.22
2023-01-15T23:29:48.305Z,4.24
2023-01-15T23:32:53.040Z,4.30
2023-01-15T23:35:59.066Z,4.37
2023-01-15T23:39:05.433Z,4.39
2023-01-15T23:42:28.327Z,4.39
2023-01-15T23:45:49.469Z,4.41
2023-01-15T23:48:54.345Z,4.45
2023-01-15T23:51:59.513Z,4.55
2023-01-15T23:55:05.841Z,4.56
2023-01-15T23:58:10.349Z,4.57
